createdAt,value
2023-01-04T00:01:23.113Z,95.64
2023-01-04T00:06:26.391Z,96.28
2023-01-04T00:11:28.980Z,96.21
2023-01-04T00:16:31.692Z,96.23
2023-01-04T00:21:34.394Z,96.25
2023-01-04T00:26:37.273Z,95.87
2023-01-04T00:31:40.120Z,96.29
2023-01-04T00:36:43.059Z,96.04
2023-01-04T00:42:00.217Z,96.38
2023-01-04T00:47:04.985Z,95.76
2023-01-04T00:52:08.196Z,94.82
2023-01-04T00:57:10.814Z,94.20
2023-01-04T01:02:13.614Z,94.02
2023-01-04T01:07:16.401Z,93.93
2023-01-04T01:12:18.991Z,93.91
2023-01-04T01:17:21.560Z,93.59
2023-01-04T01:22:24.073Z,92.80
2023-01-04T01:27:26.773Z,91.61
2023-01-04T01:32:29.670Z,91.71
2023-01-04T01:37:32.306Z,91.42
2023-01-04T01:42:35.240Z,90.16
2023-01-04T01:47:44.953Z,90.12
2023-01-04T01:52:50.097Z,89.00
2023-01-04T01:57:55.764Z,89.64
2023-01-04T02:03:15.672Z,88.81
2023-01-04T02:08:22.512Z,89.03
2023-01-04T02:13:48.769Z,89.70
2023-01-04T02:19:17.179Z,89.80
2023-01-04T02:24:19.603Z,90.65
2023-01-04T02:29:30.966Z,90.04
2023-01-04T02:34:33.429Z,90.50
2023-01-04T02:40:08.009Z,90.37
2023-01-04T02:45:12.249Z,90.39
2023-01-04T02:50:32.414Z,90.21
2023-01-04T02:55:49.385Z,90.50
2023-01-04T03:01:44.168Z,91.21
2023-01-04T03:07:13.223Z,91.75
2023-01-04T03:12:33.910Z,91.58
2023-01-04T03:17:59.347Z,91.57
2023-01-04T03:23:23.330Z,91.83
2023-01-04T03:28:49.662Z,90.84
2023-01-04T03:34:11.272Z,90.67
2023-01-04T03:39:48.326Z,90.57
2023-01-04T03:45:35.580Z,90.12
2023-01-04T03:50:42.724Z,90.78
2023-01-04T03:55:47.605Z,90.55
2023-01-04T04:00:50.705Z,90.46
2023-01-04T04:06:11.832Z,90.56
2023-01-04T04:11:32.817Z,90.77
2023-01-04T04:16:35.661Z,91.01
2023-01-04T04:21:38.464Z,91.32
2023-01-04T04:26:41.023Z,91.53
2023-01-04T04:31:44.018Z,91.82
2023-01-04T04:36:46.627Z,91.63
2023-01-04T04:41:49.179Z,92.11
2023-01-04T04:46:51.776Z,92.07
2023-01-04T04:51:54.331Z,93.35
2023-01-04T04:56:56.903Z,94.05
2023-01-04T05:01:59.501Z,93.50
2023-01-04T05:07:06.326Z,92.51
2023-01-04T05:12:31.291Z,90.97
2023-01-04T05:17:33.870Z,89.91
2023-01-04T05:22:36.400Z,89.97
2023-01-04T05:27:39.092Z,89.78
2023-01-04T05:32:41.712Z,89.98
2023-01-04T05:37:44.317Z,89.99
2023-01-04T05:42:47.761Z,89.09
2023-01-04T05:47:52.032Z,88.53
2023-01-04T05:52:54.708Z,88.63
2023-01-04T05:57:57.278Z,88.14
2023-01-04T06:02:59.984Z,87.99
2023-01-04T06:08:02.879Z,88.07
2023-01-04T06:13:05.571Z,88.53
2023-01-04T06:18:13.124Z,88.77
2023-01-04T06:23:16.364Z,88.30
2023-01-04T06:28:18.947Z,88.68
2023-01-04T06:33:21.579Z,87.97
2023-01-04T06:38:24.158Z,87.98
2023-01-04T06:43:26.727Z,88.21
2023-01-04T06:48:29.360Z,88.22
2023-01-04T06:53:31.975Z,88.16
2023-01-04T06:58:34.926Z,89.02
2023-01-04T07:03:37.527Z,88.93
2023-01-04T07:08:40.154Z,88.74
2023-01-04T07:13:42.792Z,88.40
2023-01-04T07:18:45.310Z,88.08
2023-01-04T07:23:47.887Z,87.50
2023-01-04T07:29:09.092Z,87.29
2023-01-04T07:34:12.303Z,87.33
2023-01-04T07:39:16.078Z,86.25
2023-01-04T07:44:18.919Z,85.20
2023-01-04T07:49:21.506Z,85.69
2023-01-04T07:54:24.555Z,85.63
2023-01-04T07:59:27.143Z,85.39
2023-01-04T08:04:34.532Z,85.32
2023-01-04T08:09:37.787Z,85.27
2023-01-04T08:14:40.290Z,85.37
2023-01-04T08:19:43.955Z,85.82
2023-01-04T08:24:46.529Z,85.56
2023-01-04T08:29:49.135Z,84.55
2023-01-04T08:34:51.765Z,83.88
2023-01-04T08:39:54.393Z,84.37
2023-01-04T08:44:59.819Z,84.45
2023-01-04T08:50:09.879Z,84.03
2023-01-04T08:55:16.781Z,84.45
2023-01-04T09:00:21.898Z,84.44
2023-01-04T09:05:26.161Z,84.14
2023-01-04T09:10:28.930Z,84.44
2023-01-04T09:15:33.623Z,84.61
2023-01-04T09:20:38.107Z,84.48
2023-01-04T09:25:41.035Z,84.44
2023-01-04T09:30:43.702Z,84.51
2023-01-04T09:35:46.536Z,84.37
2023-01-04T09:41:10.648Z,83.66
2023-01-04T09:46:22.894Z,82.67
2023-01-04T09:51:34.054Z,81.99
2023-01-04T09:56:37.911Z,81.83
2023-01-04T10:01:51.675Z,82.22
2023-01-04T10:06:58.077Z,82.25
2023-01-04T10:12:18.573Z,82.20
2023-01-04T10:18:51.962Z,82.22
2023-01-04T10:23:13.552Z,82.07
2023-01-04T10:28:47.004Z,81.79
2023-01-04T10:33:55.728Z,81.81
2023-01-04T10:39:03.661Z,81.43
2023-01-04T10:44:22.413Z,81.86
2023-01-04T10:49:37.772Z,81.48
2023-01-04T10:55:03.843Z,80.30
2023-01-04T11:00:18.204Z,79.53
2023-01-04T11:05:26.768Z,79.34
2023-01-04T11:10:37.019Z,79.34
2023-01-04T11:15:42.699Z,78.97
2023-01-04T11:20:45.442Z,79.05
2023-01-04T11:25:56.990Z,79.51
2023-01-04T11:31:26.445Z,79.31
2023-01-04T11:36:32.115Z,78.86
2023-01-04T11:41:34.910Z,78.78
2023-01-04T11:46:37.501Z,78.37
2023-01-04T11:51:40.979Z,78.37
2023-01-04T11:57:02.753Z,78.84
2023-01-04T12:02:11.948Z,78.24
2023-01-04T12:07:32.314Z,78.81
2023-01-04T12:12:34.979Z,78.19
2023-01-04T12:17:53.136Z,78.77
2023-01-04T12:22:55.975Z,79.34
2023-01-04T12:27:58.782Z,79.11
2023-01-04T12:33:30.900Z,79.01
2023-01-04T12:38:52.030Z,78.82
2023-01-04T12:43:55.289Z,78.76
2023-01-04T12:49:03.897Z,78.88
2023-01-04T12:54:24.821Z,79.06
2023-01-04T12:59:39.124Z,78.60
2023-01-04T13:04:42.012Z,78.95
2023-01-04T13:10:28.151Z,79.05
2023-01-04T13:15:45.550Z,79.05
2023-01-04T13:20:48.319Z,79.58
2023-01-04T13:25:50.964Z,79.74
2023-01-04T13:31:00.675Z,79.95
2023-01-04T13:36:10.083Z,80.19
2023-01-04T13:41:22.165Z,79.86
2023-01-04T13:46:27.416Z,80.09
2023-01-04T13:51:37.810Z,79.89
2023-01-04T13:56:40.734Z,79.50
2023-01-04T14:01:45.638Z,80.06
2023-01-04T14:06:51.112Z,79.13
2023-01-04T14:12:08.600Z,79.22
2023-01-04T14:17:26.745Z,79.95
2023-01-04T14:22:40.384Z,79.93
2023-01-04T14:27:43.086Z,79.98
2023-01-04T14:33:02.725Z,80.70
2023-01-04T14:38:11.079Z,80.93
2023-01-04T14:43:34.750Z,80.10
2023-01-04T14:48:37.480Z,79.91
2023-01-04T14:53:40.041Z,79.51
2023-01-04T14:58:42.922Z,80.34
2023-01-04T15:03:45.870Z,80.29
2023-01-04T15:08:49.075Z,81.28
2023-01-04T15:13:51.628Z,82.26
2023-01-04T15:18:54.232Z,82.33
2023-01-04T15:23:56.844Z,82.90
2023-01-04T15:28:59.498Z,81.39
2023-01-04T15:34:02.032Z,81.32
2023-01-04T15:39:05.417Z,81.19
2023-01-04T15:44:11.518Z,81.36
2023-01-04T15:49:17.654Z,82.31
2023-01-04T15:54:22.018Z,82.88
2023-01-04T15:59:25.782Z,82.30
2023-01-04T16:04:29.185Z,82.41
2023-01-04T16:09:31.793Z,82.70
2023-01-04T16:14:34.611Z,83.64
2023-01-04T16:19:37.219Z,83.99
2023-01-04T16:30:04.546Z,82.67
2023-01-04T16:35:08.397Z,83.25
2023-01-04T16:40:11.823Z,82.56
2023-01-04T16:45:15.861Z,82.62
2023-01-04T16:50:18.458Z,82.89
2023-01-04T16:55:24.130Z,83.39
2023-01-04T17:00:27.493Z,82.90
2023-01-04T17:05:30.445Z,83.00
2023-01-04T17:10:36.717Z,84.70
2023-01-04T17:15:43.815Z,86.49
2023-01-04T17:20:54.756Z,86.25
2023-01-04T17:26:08.550Z,86.13
2023-01-04T17:31:16.285Z,85.83
2023-01-04T17:36:20.559Z,87.69
2023-01-04T17:41:25.207Z,88.35
2023-01-04T17:46:32.085Z,88.84
2023-01-04T17:51:34.995Z,90.71
2023-01-04T17:56:37.920Z,92.01
2023-01-04T18:01:41.103Z,93.11
2023-01-04T18:06:43.728Z,95.15
2023-01-04T18:11:46.424Z,96.96
2023-01-04T18:16:58.665Z,96.39
2023-01-04T18:22:02.484Z,96.81
2023-01-04T18:27:23.715Z,96.82
2023-01-04T18:32:27.842Z,97.91
2023-01-04T18:37:30.753Z,98.19
2023-01-04T18:42:33.547Z,99.19
2023-01-04T18:47:36.672Z,99.37
2023-01-04T18:52:39.527Z,100.00
2023-01-04T18:57:42.183Z,100.00
2023-01-04T19:02:44.950Z,100.00
2023-01-04T19:07:47.780Z,100.00
2023-01-04T19:12:50.398Z,99.37
2023-01-04T19:17:52.988Z,99.28
2023-01-04T19:22:55.527Z,98.69
2023-01-04T19:27:58.156Z,98.24
2023-01-04T19:33:00.762Z,98.74
2023-01-04T19:38:05.685Z,98.02
2023-01-04T19:43:08.349Z,98.01
2023-01-04T19:48:10.984Z,98.01
2023-01-04T19:53:14.109Z,98.16
2023-01-04T19:58:17.694Z,98.17
2023-01-04T20:03:24.705Z,97.69
2023-01-04T20:08:27.370Z,97.08
2023-01-04T20:13:31.554Z,97.20
2023-01-04T20:18:35.186Z,98.15
2023-01-04T20:23:38.794Z,99.58
2023-01-04T20:28:44.097Z,100.00
2023-01-04T20:33:47.772Z,100.00
2023-01-04T20:38:50.357Z,100.00
2023-01-04T20:43:53.049Z,100.00
2023-01-04T20:48:55.801Z,100.00
2023-01-04T20:54:02.151Z,100.00
2023-01-04T20:59:08.100Z,100.00
2023-01-04T21:04:10.641Z,100.00
2023-01-04T21:09:13.273Z,100.00
2023-01-04T21:14:15.875Z,100.00
2023-01-04T21:19:18.514Z,100.00
2023-01-04T21:24:21.061Z,100.00
2023-01-04T21:29:25.496Z,100.00
2023-01-04T21:34:31.582Z,100.00
2023-01-04T21:39:34.230Z,100.00
2023-01-04T21:44:36.884Z,100.00
2023-01-04T21:49:43.879Z,100.00
2023-01-04T21:54:46.958Z,100.00
2023-01-04T21:59:49.658Z,100.00
2023-01-04T22:04:52.315Z,100.00
2023-01-04T22:09:57.571Z,100.00
2023-01-04T22:15:00.503Z,100.00
2023-01-04T22:20:03.083Z,100.00
2023-01-04T22:25:06.215Z,100.00
2023-01-04T22:30:09.194Z,100.00
2023-01-04T22:35:11.774Z,100.00
2023-01-04T22:40:14.758Z,100.00
2023-01-04T22:45:17.383Z,100.00
2023-01-04T22:50:19.957Z,100.00
2023-01-04T22:55:23.175Z,100.00
2023-01-04T23:00:25.714Z,100.00
2023-01-04T23:05:28.955Z,100.00
2023-01-04T23:10:31.457Z,100.00
2023-01-04T23:15:37.399Z,100.00
2023-01-04T23:20:39.945Z,100.00
2023-01-04T23:25:42.524Z,100.00
2023-01-04T23:30:45.069Z,100.00
2023-01-04T23:35:47.711Z,99.99
2023-01-04T23:40:50.262Z,99.14
2023-01-04T23:45:52.841Z,99.42
2023-01-04T23:50:56.678Z,99.79
2023-01-04T23:56:02.918Z,98.85
